createdAt,value
2018-03-26T00:01:18.586Z,91.20
2018-03-26T00:03:44.770Z,91.20
2018-03-26T00:06:10.947Z,91.00
2018-03-26T00:08:37.117Z,90.80
2018-03-26T00:11:03.319Z,90.70
2018-03-26T00:13:29.503Z,90.70
2018-03-26T00:15:55.684Z,90.70
2018-03-26T00:18:21.896Z,90.70
2018-03-26T00:20:48.063Z,90.90
2018-03-26T00:23:14.245Z,90.90
2018-03-26T00:25:40.459Z,91.00
2018-03-26T00:28:07.371Z,91.10
2018-03-26T00:30:33.567Z,90.80
2018-03-26T00:32:59.799Z,90.90
2018-03-26T00:35:25.979Z,90.80
2018-03-26T00:37:52.967Z,90.70
2018-03-26T00:40:19.880Z,90.80
2018-03-26T00:42:46.058Z,90.70
2018-03-26T00:45:12.264Z,90.90
2018-03-26T00:47:39.251Z,91.00
2018-03-26T00:50:05.439Z,90.60
2018-03-26T00:52:31.598Z,90.60
2018-03-26T00:54:57.808Z,90.80
2018-03-26T00:57:23.978Z,90.80
2018-03-26T00:59:50.229Z,90.80
2018-03-26T01:02:16.561Z,90.80
2018-03-26T01:04:42.751Z,90.70
2018-03-26T01:07:09.739Z,90.60
2018-03-26T01:09:36.679Z,90.50
2018-03-26T01:12:02.862Z,90.50
2018-03-26T01:14:29.054Z,90.70
2018-03-26T01:16:55.228Z,90.70
2018-03-26T01:19:21.422Z,90.60
2018-03-26T01:21:47.595Z,90.60
2018-03-26T01:24:14.008Z,90.50
2018-03-26T01:26:40.174Z,90.40
2018-03-26T01:29:07.135Z,90.50
2018-03-26T01:31:34.090Z,90.50
2018-03-26T01:34:00.999Z,90.30
2018-03-26T01:36:28.710Z,90.30
2018-03-26T01:38:55.617Z,90.30
2018-03-26T01:41:21.792Z,90.30
2018-03-26T01:43:48.734Z,90.40
2018-03-26T01:46:15.696Z,90.60
2018-03-26T01:48:42.645Z,90.60
2018-03-26T01:51:09.578Z,90.60
2018-03-26T01:53:35.742Z,90.60
2018-03-26T01:56:01.959Z,90.80
2018-03-26T01:58:28.880Z,90.40
2018-03-26T02:00:55.104Z,90.30
2018-03-26T02:03:21.283Z,90.20
2018-03-26T02:05:47.480Z,90.10
2018-03-26T02:08:13.655Z,90.30
2018-03-26T02:10:40.075Z,90.50
2018-03-26T02:13:06.978Z,90.50
2018-03-26T02:15:33.152Z,90.40
2018-03-26T02:18:00.107Z,90.50
2018-03-26T02:20:27.059Z,90.60
2018-03-26T02:22:53.998Z,90.80
2018-03-26T02:25:20.942Z,90.90
2018-03-26T02:27:47.107Z,90.80
2018-03-26T02:30:13.308Z,90.90
2018-03-26T02:32:39.504Z,91.00
2018-03-26T02:35:05.724Z,91.40
2018-03-26T02:37:31.920Z,91.10
2018-03-26T02:39:58.821Z,91.30
2018-03-26T02:42:25.003Z,91.30
2018-03-26T02:44:51.919Z,91.00
2018-03-26T02:47:18.135Z,91.00
2018-03-26T02:49:44.330Z,90.70
2018-03-26T02:52:10.520Z,90.60
2018-03-26T02:54:36.731Z,90.10
2018-03-26T02:57:02.890Z,90.30
2018-03-26T02:59:29.809Z,90.20
2018-03-26T03:01:56.019Z,90.20
2018-03-26T03:04:22.183Z,90.40
2018-03-26T03:06:48.360Z,90.70
2018-03-26T03:09:15.298Z,90.60
2018-03-26T03:11:41.494Z,90.60
2018-03-26T03:14:07.731Z,90.60
2018-03-26T03:16:33.907Z,90.50
2018-03-26T03:19:00.870Z,90.60
2018-03-26T03:21:27.053Z,90.60
2018-03-26T03:23:53.240Z,90.70
2018-03-26T03:26:19.468Z,90.60
2018-03-26T03:28:45.634Z,90.40
2018-03-26T03:31:11.791Z,90.60
2018-03-26T03:33:38.023Z,90.70
2018-03-26T03:36:04.218Z,90.70
2018-03-26T03:38:30.379Z,90.80
2018-03-26T03:40:56.587Z,90.60
2018-03-26T03:43:22.760Z,90.60
2018-03-26T03:45:48.932Z,90.50
2018-03-26T03:48:15.123Z,90.60
2018-03-26T03:50:41.331Z,90.80
2018-03-26T03:53:07.552Z,90.60
2018-03-26T03:55:33.723Z,90.90
2018-03-26T03:57:59.978Z,90.60
2018-03-26T04:00:26.896Z,90.70
2018-03-26T04:02:53.076Z,90.70
2018-03-26T04:05:20.010Z,90.90
2018-03-26T04:07:46.916Z,91.00
2018-03-26T04:10:13.119Z,91.00
2018-03-26T04:12:39.312Z,90.90
2018-03-26T04:15:05.480Z,91.00
2018-03-26T04:17:31.683Z,90.80
2018-03-26T04:19:57.898Z,90.90
2018-03-26T04:22:24.105Z,91.00
2018-03-26T04:24:50.262Z,91.00
2018-03-26T04:27:16.422Z,91.10
2018-03-26T04:29:43.350Z,90.90
2018-03-26T04:32:09.559Z,90.90
2018-03-26T04:34:35.769Z,90.80
2018-03-26T04:37:01.960Z,90.90
2018-03-26T04:39:28.867Z,91.30
2018-03-26T04:41:55.467Z,91.00
2018-03-26T04:44:21.659Z,90.90
2018-03-26T04:46:47.825Z,90.80
2018-03-26T04:49:14.767Z,90.70
2018-03-26T04:51:40.970Z,90.70
2018-03-26T04:54:07.220Z,90.60
2018-03-26T04:56:33.378Z,90.80
2018-03-26T04:59:00.295Z,90.60
2018-03-26T05:01:26.487Z,90.60
2018-03-26T05:03:52.642Z,90.70
2018-03-26T05:06:18.855Z,90.70
2018-03-26T05:08:45.070Z,90.70
2018-03-26T05:11:11.272Z,90.70
2018-03-26T05:13:38.191Z,90.60
2018-03-26T05:16:04.419Z,90.60
2018-03-26T05:18:30.607Z,90.60
2018-03-26T05:20:57.520Z,90.70
2018-03-26T05:23:23.745Z,90.70
2018-03-26T05:25:50.658Z,91.10
2018-03-26T05:28:16.827Z,91.40
2018-03-26T05:30:43.091Z,91.20
2018-03-26T05:33:09.276Z,91.10
2018-03-26T05:35:35.452Z,91.20
2018-03-26T05:38:02.457Z,90.90
2018-03-26T05:40:28.618Z,90.90
2018-03-26T05:42:54.808Z,90.80
2018-03-26T05:45:21.080Z,90.90
2018-03-26T05:47:47.294Z,90.80
2018-03-26T05:50:13.477Z,90.60
2018-03-26T05:52:40.422Z,90.90
2018-03-26T05:55:07.359Z,90.90
2018-03-26T05:57:33.540Z,90.80
2018-03-26T05:59:59.771Z,90.90
2018-03-26T06:02:25.980Z,90.90
2018-03-26T06:04:52.937Z,91.00
2018-03-26T06:07:19.851Z,91.00
2018-03-26T06:09:46.114Z,90.90
2018-03-26T06:12:13.019Z,91.00
2018-03-26T06:14:39.192Z,90.90
2018-03-26T06:17:13.959Z,91.00
2018-03-26T06:19:40.151Z,91.00
2018-03-26T06:22:07.089Z,90.90
2018-03-26T06:24:33.347Z,90.90
2018-03-26T06:27:00.287Z,90.90
2018-03-26T06:29:27.223Z,90.80
2018-03-26T06:31:54.175Z,90.50
2018-03-26T06:34:20.375Z,90.40
2018-03-26T06:36:52.607Z,90.40
2018-03-26T06:39:26.975Z,90.60
2018-03-26T06:41:53.239Z,90.50
2018-03-26T06:44:20.213Z,90.20
2018-03-26T06:46:47.087Z,90.70
2018-03-26T06:49:13.275Z,90.30
2018-03-26T06:51:40.179Z,90.60
2018-03-26T06:54:06.402Z,90.50
2018-03-26T06:56:32.575Z,90.80
2018-03-26T06:58:59.494Z,91.50
2018-03-26T07:01:25.763Z,91.00
2018-03-26T07:03:52.680Z,91.30
2018-03-26T07:06:18.873Z,90.90
2018-03-26T07:08:45.068Z,90.70
2018-03-26T07:11:11.244Z,90.70
2018-03-26T07:13:37.491Z,90.50
2018-03-26T07:16:03.666Z,90.30
2018-03-26T07:18:31.329Z,90.00
2018-03-26T07:20:57.579Z,90.00
2018-03-26T07:23:24.511Z,88.80
2018-03-26T07:25:50.709Z,88.60
2018-03-26T07:28:16.916Z,89.40
2018-03-26T07:30:43.079Z,88.30
2018-03-26T07:33:09.320Z,88.60
2018-03-26T07:35:35.502Z,89.60
2018-03-26T07:38:02.416Z,90.20
2018-03-26T07:40:28.693Z,90.20
2018-03-26T07:42:55.600Z,89.20
2018-03-26T07:45:21.790Z,89.10
2018-03-26T07:47:47.983Z,86.70
2018-03-26T07:50:14.182Z,86.40
2018-03-26T07:52:40.416Z,86.10
2018-03-26T07:55:06.581Z,85.00
2018-03-26T07:57:33.502Z,85.30
2018-03-26T07:59:59.747Z,85.30
2018-03-26T08:02:25.939Z,84.50
2018-03-26T08:04:52.101Z,83.00
2018-03-26T08:07:18.332Z,82.20
2018-03-26T08:09:44.502Z,81.90
2018-03-26T08:12:11.415Z,82.60
2018-03-26T08:14:37.626Z,82.70
2018-03-26T08:17:03.875Z,82.60
2018-03-26T08:19:30.026Z,82.70
2018-03-26T08:21:56.190Z,81.80
2018-03-26T08:24:23.170Z,82.20
2018-03-26T08:26:49.357Z,82.10
2018-03-26T08:29:15.538Z,82.60
2018-03-26T08:31:41.739Z,82.30
2018-03-26T08:34:08.646Z,82.90
2018-03-26T08:36:34.858Z,82.80
2018-03-26T08:39:01.019Z,82.60
2018-03-26T08:41:27.218Z,83.00
2018-03-26T08:43:53.411Z,82.50
2018-03-26T08:46:19.590Z,83.60
2018-03-26T08:48:45.792Z,83.30
2018-03-26T08:51:12.718Z,85.00
2018-03-26T08:53:38.920Z,84.30
2018-03-26T08:56:05.110Z,83.60
2018-03-26T08:58:32.019Z,84.80
2018-03-26T09:00:58.246Z,84.70
2018-03-26T09:03:24.417Z,84.10
2018-03-26T09:05:51.321Z,84.20
2018-03-26T09:08:17.569Z,84.20
2018-03-26T09:10:43.699Z,84.10
2018-03-26T09:13:09.918Z,83.90
2018-03-26T09:15:36.132Z,83.90
2018-03-26T09:18:02.372Z,83.60
2018-03-26T09:20:28.544Z,83.20
2018-03-26T09:22:54.722Z,83.40
2018-03-26T09:25:20.954Z,84.00
2018-03-26T09:27:47.130Z,83.00
2018-03-26T09:30:13.293Z,83.00
2018-03-26T09:32:40.225Z,82.70
2018-03-26T09:35:06.399Z,82.60
2018-03-26T09:37:32.567Z,83.10
2018-03-26T09:39:58.790Z,82.40
2018-03-26T09:42:24.968Z,83.40
2018-03-26T09:44:51.897Z,82.00
2018-03-26T09:47:18.070Z,81.30
2018-03-26T09:49:44.267Z,81.00
2018-03-26T09:52:10.435Z,79.80
2018-03-26T09:54:36.597Z,80.20
2018-03-26T09:57:02.902Z,79.40
2018-03-26T09:59:29.079Z,79.60
2018-03-26T10:01:57.127Z,80.00
2018-03-26T10:04:26.444Z,78.60
2018-03-26T10:06:52.636Z,76.90
2018-03-26T10:09:18.851Z,77.90
2018-03-26T10:11:45.048Z,77.60
2018-03-26T10:14:11.229Z,77.20
2018-03-26T10:16:38.194Z,78.70
2018-03-26T10:19:04.370Z,78.60
2018-03-26T10:21:30.539Z,78.20
2018-03-26T10:23:56.727Z,75.80
2018-03-26T10:26:22.903Z,78.40
2018-03-26T10:28:49.120Z,77.20
2018-03-26T10:31:15.354Z,75.60
2018-03-26T10:33:41.515Z,76.00
2018-03-26T10:36:08.452Z,76.60
2018-03-26T10:38:34.716Z,76.50
2018-03-26T10:41:00.888Z,77.90
2018-03-26T10:43:27.063Z,79.50
2018-03-26T10:45:54.016Z,78.40
2018-03-26T10:48:20.929Z,76.90
2018-03-26T10:50:47.109Z,76.80
2018-03-26T10:53:14.026Z,73.90
2018-03-26T10:55:40.186Z,73.50
2018-03-26T10:58:06.352Z,75.60
2018-03-26T11:00:39.615Z,74.00
2018-03-26T11:03:05.791Z,73.50
2018-03-26T11:05:31.985Z,72.40
2018-03-26T11:07:58.151Z,73.10
2018-03-26T11:10:24.343Z,71.90
2018-03-26T11:12:50.541Z,72.80
2018-03-26T11:15:16.749Z,73.10
2018-03-26T11:17:42.924Z,76.60
2018-03-26T11:20:09.841Z,79.60
2018-03-26T11:22:36.059Z,79.50
2018-03-26T11:25:02.303Z,78.10
2018-03-26T11:27:28.492Z,77.40
2018-03-26T11:29:54.680Z,73.60
2018-03-26T11:32:20.909Z,73.80
2018-03-26T11:34:47.095Z,76.10
2018-03-26T11:37:13.304Z,74.80
2018-03-26T11:39:40.231Z,75.60
2018-03-26T11:42:06.432Z,75.50
2018-03-26T11:44:32.594Z,75.10
2018-03-26T11:46:59.547Z,70.30
2018-03-26T11:49:25.768Z,70.20
2018-03-26T11:51:51.943Z,72.20
2018-03-26T11:54:18.874Z,69.00
2018-03-26T11:56:45.078Z,68.80
2018-03-26T11:59:11.272Z,69.40
2018-03-26T12:01:37.479Z,72.40
2018-03-26T12:04:04.382Z,70.40
2018-03-26T12:06:30.567Z,70.30
2018-03-26T12:08:57.521Z,68.90
2018-03-26T12:11:23.709Z,68.80
2018-03-26T12:13:49.947Z,68.20
2018-03-26T12:16:16.184Z,67.70
2018-03-26T12:18:42.375Z,67.60
2018-03-26T12:21:08.632Z,67.30
2018-03-26T12:23:47.092Z,65.30
2018-03-26T12:26:14.043Z,66.80
2018-03-26T12:28:53.160Z,66.50
2018-03-26T12:31:19.388Z,66.20
2018-03-26T12:33:58.051Z,69.50
2018-03-26T12:36:24.261Z,69.40
2018-03-26T12:38:51.173Z,69.50
2018-03-26T12:41:17.354Z,69.40
2018-03-26T12:43:43.574Z,68.90
2018-03-26T12:46:22.963Z,65.60
2018-03-26T12:48:49.219Z,65.50
2018-03-26T12:51:27.547Z,68.40
2018-03-26T12:53:54.503Z,65.20
2018-03-26T12:56:21.426Z,68.90
2018-03-26T12:58:47.655Z,68.90
2018-03-26T13:01:26.076Z,69.50
2018-03-26T13:03:52.329Z,70.00
2018-03-26T13:06:19.246Z,74.70
2018-03-26T13:08:45.419Z,74.50
2018-03-26T13:11:12.366Z,74.30
2018-03-26T13:13:39.300Z,75.50
2018-03-26T13:16:05.527Z,74.80
2018-03-26T13:18:32.478Z,76.50
2018-03-26T13:20:58.651Z,76.40
2018-03-26T13:23:24.855Z,75.30
2018-03-26T13:25:51.763Z,74.10
2018-03-26T13:28:17.962Z,73.20
2018-03-26T13:30:44.136Z,74.00
2018-03-26T13:33:10.359Z,74.70
2018-03-26T13:35:36.517Z,73.20
2018-03-26T13:38:02.716Z,74.10
2018-03-26T13:40:28.952Z,73.00
2018-03-26T13:42:55.155Z,71.40
2018-03-26T13:45:21.311Z,70.40
2018-03-26T13:47:47.516Z,71.10
2018-03-26T13:50:13.689Z,69.80
2018-03-26T13:52:39.939Z,66.40
2018-03-26T13:55:06.177Z,67.10
2018-03-26T13:57:32.367Z,69.60
2018-03-26T13:59:58.542Z,71.10
2018-03-26T14:02:24.760Z,73.20
2018-03-26T14:04:50.940Z,74.30
2018-03-26T14:07:17.180Z,74.40
2018-03-26T14:09:55.786Z,75.90
2018-03-26T14:12:35.075Z,75.80
2018-03-26T14:15:13.760Z,75.90
2018-03-26T14:17:49.249Z,76.50
2018-03-26T14:20:15.439Z,72.80
2018-03-26T14:22:41.620Z,73.00
2018-03-26T14:25:07.821Z,73.50
2018-03-26T14:27:34.003Z,74.50
2018-03-26T14:30:00.939Z,74.90
2018-03-26T14:32:27.127Z,74.90
2018-03-26T14:35:05.935Z,74.50
2018-03-26T14:37:32.104Z,72.40
2018-03-26T14:39:58.291Z,73.80
2018-03-26T14:42:24.482Z,72.90
2018-03-26T14:44:50.639Z,73.70
2018-03-26T14:47:17.584Z,73.30
2018-03-26T14:49:44.553Z,70.20
2018-03-26T14:52:10.718Z,70.10
2018-03-26T14:54:36.878Z,71.50
2018-03-26T14:57:03.099Z,70.70
2018-03-26T14:59:29.295Z,73.30
2018-03-26T15:01:55.471Z,72.00
2018-03-26T15:04:21.698Z,70.00
2018-03-26T15:06:47.883Z,71.50
2018-03-26T15:09:14.096Z,69.50
2018-03-26T15:11:41.026Z,70.80
2018-03-26T15:14:07.196Z,70.70
2018-03-26T15:16:33.411Z,70.50
2018-03-26T15:19:00.347Z,72.40
2018-03-26T15:21:26.539Z,71.60
2018-03-26T15:23:52.733Z,72.90
2018-03-26T15:26:19.723Z,73.90
2018-03-26T15:28:45.891Z,73.90
2018-03-26T15:31:12.067Z,71.10
2018-03-26T15:33:38.291Z,73.20
2018-03-26T15:36:04.463Z,71.90
2018-03-26T15:38:30.674Z,71.50
2018-03-26T15:40:56.860Z,71.90
2018-03-26T15:43:23.044Z,73.50
2018-03-26T15:45:49.274Z,73.90
2018-03-26T15:48:15.459Z,74.70
2018-03-26T15:50:41.711Z,73.70
2018-03-26T15:53:08.656Z,75.30
2018-03-26T15:55:35.585Z,72.60
2018-03-26T15:58:01.823Z,72.60
2018-03-26T16:00:28.765Z,74.80
2018-03-26T16:03:01.094Z,74.80
2018-03-26T16:05:27.279Z,76.00
2018-03-26T16:07:53.496Z,76.50
2018-03-26T16:10:19.697Z,77.60
2018-03-26T16:12:45.868Z,78.20
2018-03-26T16:15:12.075Z,79.60
2018-03-26T16:17:38.259Z,79.80
2018-03-26T16:20:05.416Z,81.70
2018-03-26T16:22:32.324Z,82.40
2018-03-26T16:24:58.494Z,82.40
2018-03-26T16:27:25.443Z,83.10
2018-03-26T16:29:52.398Z,83.50
2018-03-26T16:32:19.327Z,84.00
2018-03-26T16:34:45.531Z,84.00
2018-03-26T16:37:11.742Z,84.80
2018-03-26T16:39:37.938Z,84.60
2018-03-26T16:42:17.306Z,85.50
2018-03-26T16:44:43.534Z,85.30
2018-03-26T16:47:09.711Z,85.50
2018-03-26T16:49:35.886Z,85.10
2018-03-26T16:52:02.883Z,85.30
2018-03-26T16:54:29.059Z,85.20
2018-03-26T16:56:55.962Z,84.70
2018-03-26T16:59:22.152Z,84.70
2018-03-26T17:01:49.080Z,84.50
2018-03-26T17:04:15.991Z,84.70
2018-03-26T17:06:42.189Z,84.50
2018-03-26T17:09:08.379Z,84.80
2018-03-26T17:11:34.624Z,85.00
2018-03-26T17:14:00.835Z,86.20
2018-03-26T17:16:27.063Z,85.10
2018-03-26T17:18:53.292Z,86.20
2018-03-26T17:21:19.527Z,86.30
2018-03-26T17:23:45.698Z,86.10
2018-03-26T17:26:12.643Z,86.00
2018-03-26T17:28:38.823Z,86.00
2018-03-26T17:31:05.060Z,86.20
2018-03-26T17:33:31.251Z,86.40
2018-03-26T17:35:58.163Z,86.30
2018-03-26T17:38:24.458Z,86.20
2018-03-26T17:40:50.638Z,86.70
2018-03-26T17:43:16.871Z,86.60
2018-03-26T17:45:43.879Z,86.90
2018-03-26T17:48:10.131Z,86.90
2018-03-26T17:50:36.378Z,87.20
2018-03-26T17:53:02.635Z,87.30
2018-03-26T17:55:28.870Z,87.60
2018-03-26T17:57:55.150Z,87.00
2018-03-26T18:00:21.343Z,86.80
2018-03-26T18:02:47.845Z,86.50
2018-03-26T18:05:14.096Z,86.80
2018-03-26T18:07:40.493Z,86.70
2018-03-26T18:10:06.745Z,86.60
2018-03-26T18:12:32.964Z,86.80
2018-03-26T18:14:59.151Z,88.10
2018-03-26T18:17:26.126Z,87.20
2018-03-26T18:19:52.303Z,87.20
2018-03-26T18:22:18.511Z,87.00
2018-03-26T18:24:44.758Z,87.90
2018-03-26T18:27:10.924Z,87.70
2018-03-26T18:29:37.111Z,87.40
2018-03-26T18:32:03.335Z,87.70
2018-03-26T18:34:29.525Z,87.80
2018-03-26T18:36:55.728Z,88.10
2018-03-26T18:39:21.916Z,88.20
2018-03-26T18:41:49.072Z,88.00
2018-03-26T18:44:16.067Z,88.20
2018-03-26T18:46:42.352Z,88.10
2018-03-26T18:49:09.432Z,88.80
2018-03-26T18:51:35.623Z,88.70
2018-03-26T18:54:01.919Z,88.70
2018-03-26T18:56:28.215Z,89.00
2018-03-26T18:58:54.451Z,89.30
2018-03-26T19:01:20.724Z,89.60
2018-03-26T19:03:47.015Z,89.70
2018-03-26T19:06:14.365Z,89.40
2018-03-26T19:08:41.307Z,89.40
2018-03-26T19:11:08.390Z,89.40
2018-03-26T19:13:34.670Z,89.40
2018-03-26T19:16:00.892Z,89.20
2018-03-26T19:18:27.210Z,89.20
2018-03-26T19:20:53.610Z,89.00
2018-03-26T19:23:20.614Z,89.60
2018-03-26T19:25:46.874Z,88.80
2018-03-26T19:28:14.647Z,89.00
2018-03-26T19:30:40.948Z,89.00
2018-03-26T19:33:07.290Z,89.30
2018-03-26T19:35:33.483Z,89.50
2018-03-26T19:37:59.770Z,89.60
2018-03-26T19:40:25.959Z,89.60
2018-03-26T19:42:52.171Z,89.80
2018-03-26T19:45:19.519Z,89.70
2018-03-26T19:47:45.880Z,89.60
2018-03-26T19:50:12.267Z,89.50
2018-03-26T19:52:38.519Z,89.70
2018-03-26T19:55:04.896Z,89.60
2018-03-26T19:57:31.235Z,89.40
2018-03-26T19:59:57.374Z,89.40
2018-03-26T20:02:23.668Z,89.50
2018-03-26T20:04:50.611Z,90.00
2018-03-26T20:07:17.020Z,89.30
2018-03-26T20:09:43.334Z,89.30
2018-03-26T20:12:09.687Z,89.20
2018-03-26T20:14:35.980Z,88.70
2018-03-26T20:17:02.274Z,88.90
2018-03-26T20:19:28.548Z,88.90
2018-03-26T20:21:55.519Z,89.00
2018-03-26T20:24:21.765Z,89.00
2018-03-26T20:26:47.984Z,89.40
2018-03-26T20:29:14.195Z,89.30
2018-03-26T20:31:41.192Z,89.50
2018-03-26T20:34:07.515Z,89.30
2018-03-26T20:36:33.793Z,89.50
2018-03-26T20:38:59.977Z,89.60
2018-03-26T20:41:26.341Z,89.50
2018-03-26T20:43:52.598Z,89.50
2018-03-26T20:46:18.831Z,89.80
2018-03-26T20:48:45.116Z,89.90
2018-03-26T20:51:11.291Z,89.70
2018-03-26T20:53:37.462Z,89.50
2018-03-26T20:56:03.688Z,89.60
2018-03-26T20:58:30.619Z,88.90
2018-03-26T21:00:57.566Z,89.80
2018-03-26T21:03:23.738Z,89.00
2018-03-26T21:05:49.962Z,89.30
2018-03-26T21:08:16.131Z,89.30
2018-03-26T21:10:42.297Z,88.40
2018-03-26T21:13:08.530Z,88.50
2018-03-26T21:15:34.715Z,88.70
2018-03-26T21:18:00.922Z,88.70
2018-03-26T21:20:27.121Z,88.80
2018-03-26T21:22:54.087Z,89.90
2018-03-26T21:25:21.105Z,89.80
2018-03-26T21:27:47.269Z,89.00
2018-03-26T21:30:14.183Z,88.30
2018-03-26T21:32:40.371Z,87.60
2018-03-26T21:35:07.300Z,87.50
2018-03-26T21:37:34.249Z,87.70
2018-03-26T21:40:01.206Z,88.00
2018-03-26T21:42:28.133Z,87.20
2018-03-26T21:44:55.057Z,87.40
2018-03-26T21:47:21.241Z,87.30
2018-03-26T21:49:48.170Z,86.80
2018-03-26T21:52:14.383Z,86.70
2018-03-26T21:54:40.653Z,86.80
2018-03-26T21:57:07.603Z,86.10
2018-03-26T21:59:34.579Z,85.90
2018-03-26T22:02:00.813Z,85.80
2018-03-26T22:04:27.086Z,85.90
2018-03-26T22:06:53.414Z,86.30
2018-03-26T22:09:19.671Z,86.40
2018-03-26T22:11:45.890Z,86.70
2018-03-26T22:14:12.147Z,87.20
2018-03-26T22:16:38.404Z,87.20
2018-03-26T22:19:04.622Z,87.40
2018-03-26T22:21:31.624Z,85.70
2018-03-26T22:23:57.923Z,85.00
2018-03-26T22:26:24.202Z,84.70
2018-03-26T22:28:50.514Z,83.80
2018-03-26T22:31:16.830Z,84.20
2018-03-26T22:33:43.182Z,83.80
2018-03-26T22:36:09.447Z,84.30
2018-03-26T22:38:35.767Z,83.60
2018-03-26T22:41:02.103Z,83.40
2018-03-26T22:43:28.392Z,83.60
2018-03-26T22:45:55.418Z,83.50
2018-03-26T22:48:21.708Z,83.40
2018-03-26T22:50:47.975Z,83.40
2018-03-26T22:53:14.282Z,82.60
2018-03-26T22:55:40.590Z,82.40
2018-03-26T22:58:07.604Z,82.50
2018-03-26T23:00:33.913Z,82.40
2018-03-26T23:03:00.195Z,82.10
2018-03-26T23:05:26.524Z,81.70
2018-03-26T23:07:52.823Z,81.70
2018-03-26T23:10:19.144Z,82.20
2018-03-26T23:12:45.505Z,81.50
2018-03-26T23:15:11.773Z,81.40
2018-03-26T23:17:38.056Z,81.70
2018-03-26T23:20:04.406Z,81.90
2018-03-26T23:22:42.901Z,81.50
2018-03-26T23:25:09.215Z,81.90
2018-03-26T23:27:36.262Z,81.70
2018-03-26T23:30:03.315Z,81.60
2018-03-26T23:32:30.266Z,81.50
2018-03-26T23:34:56.446Z,81.50
2018-03-26T23:37:22.642Z,81.80
2018-03-26T23:39:48.811Z,80.80
2018-03-26T23:42:14.994Z,81.10
2018-03-26T23:44:41.951Z,81.00
2018-03-26T23:47:08.863Z,81.00
2018-03-26T23:49:35.040Z,81.00
2018-03-26T23:52:01.283Z,81.10
2018-03-26T23:54:27.478Z,80.40
2018-03-26T23:56:53.675Z,81.10
2018-03-26T23:59:19.878Z,80.10
